Time;durP1;ratioP1;P1;durP2;ratioP2;P2;SDS_P1;SDS_P2;PMS_P1;PMS_P2;Temp;Humidity;BMP_temperature;BMP_pressure;BME280_temperature;BME280_humidity;BME280_pressure;Samples;Min_cycle;Max_cycle;Signal;HPM_P1;HPM_P2
2022/03/07 00:01:39;;;;;;;11.60;4.00;;;-0.30;99.90;;;;;;5013381;28;20450;-67
2022/03/07 00:04:05;;;;;;;4.90;4.30;;;-0.70;99.90;;;;;;5012356;28;20458;-67
2022/03/07 00:06:32;;;;;;;11.20;4.77;;;-0.70;99.90;;;;;;5012689;28;20493;-67
2022/03/07 00:08:59;;;;;;;5.50;4.80;;;-0.80;99.90;;;;;;5013228;28;20454;-67
2022/03/07 00:11:26;;;;;;;4.57;4.17;;;-0.80;99.90;;;;;;5012892;28;20454;-67
2022/03/07 00:13:52;;;;;;;4.83;4.43;;;-0.80;99.90;;;;;;5012618;28;20454;-67
2022/03/07 00:16:21;;;;;;;6.67;5.20;;;-0.80;99.90;;;;;;5012550;28;20470;-67
2022/03/07 00:18:48;;;;;;;7.60;5.27;;;-0.80;99.90;;;;;;5013005;28;20450;-67
2022/03/07 00:21:15;;;;;;;6.90;5.00;;;-0.80;99.90;;;;;;5012871;28;20450;-68
2022/03/07 00:23:41;;;;;;;6.77;5.30;;;-0.80;99.90;;;;;;5012386;28;20461;-67
2022/03/07 00:26:08;;;;;;;5.83;4.80;;;-0.80;99.90;;;;;;5012295;28;20552;-68
2022/03/07 00:28:35;;;;;;;5.83;4.90;;;-0.90;99.90;;;;;;5012236;28;20450;-68
2022/03/07 00:31:02;;;;;;;8.13;5.80;;;-0.90;99.90;;;;;;5012636;28;20451;-68
2022/03/07 00:33:30;;;;;;;6.80;5.10;;;-0.90;99.90;;;;;;5012154;28;20455;-67
2022/03/07 00:35:57;;;;;;;5.73;5.23;;;-0.90;99.90;;;;;;5012580;28;20466;-69
2022/03/07 00:38:24;;;;;;;7.23;5.23;;;-1.00;99.90;;;;;;5012189;28;21052;-68
2022/03/07 00:40:51;;;;;;;8.10;5.40;;;-1.00;99.90;;;;;;5011633;28;20815;-68
2022/03/07 00:43:18;;;;;;;5.93;5.33;;;-0.80;99.90;;;;;;5011313;28;20846;-68
2022/03/07 00:45:45;;;;;;;6.87;5.83;;;-0.50;99.90;;;;;;5012001;28;20574;-68
2022/03/07 00:48:12;;;;;;;6.50;5.40;;;-0.80;99.90;;;;;;5012487;28;20463;-67
2022/03/07 00:50:42;;;;;;;9.90;5.93;;;-0.90;99.90;;;;;;5011439;28;20946;-68
2022/03/07 00:53:09;;;;;;;6.30;5.70;;;-1.00;99.90;;;;;;5011899;28;20458;-67
2022/03/07 00:55:36;;;;;;;8.10;5.80;;;-1.10;99.90;;;;;;5011478;28;20529;-67
2022/03/07 00:58:03;;;;;;;9.07;6.17;;;-1.10;99.90;;;;;;5012024;28;20456;-67
2022/03/07 01:00:30;;;;;;;8.30;5.70;;;-1.10;99.90;;;;;;5011445;28;20461;-67
2022/03/07 01:02:56;;;;;;;7.87;5.60;;;-1.10;99.90;;;;;;5012131;28;20492;-67
2022/03/07 01:05:23;;;;;;;8.70;6.17;;;-1.10;99.90;;;;;;5011608;28;20462;-67
2022/03/07 01:07:52;;;;;;;9.83;6.80;;;-1.10;99.90;;;;;;5011808;28;20482;-68
2022/03/07 01:10:18;;;;;;;8.37;6.00;;;-1.20;99.90;;;;;;5011035;28;20462;-68
2022/03/07 01:12:45;;;;;;;6.40;5.40;;;-1.20;99.90;;;;;;5011433;28;20461;-68
2022/03/07 01:15:12;;;;;;;6.67;5.70;;;-1.20;99.90;;;;;;5011429;28;20524;-68
2022/03/07 01:17:39;;;;;;;8.13;6.30;;;-0.90;99.90;;;;;;5011856;28;20462;-68
2022/03/07 01:20:07;;;;;;;6.67;5.57;;;-1.20;99.90;;;;;;5011242;28;20449;-68
2022/03/07 01:22:35;;;;;;;8.47;6.40;;;-1.20;99.90;;;;;;5011488;28;20455;-68
2022/03/07 01:25:04;;;;;;;6.90;5.60;;;-0.90;99.90;;;;;;5011355;28;20549;-68
2022/03/07 01:27:31;;;;;;;8.77;5.90;;;-1.20;99.90;;;;;;5011661;28;20489;-68
2022/03/07 01:29:57;;;;;;;9.10;6.07;;;-1.20;99.90;;;;;;5011463;28;20446;-68
2022/03/07 01:32:24;;;;;;;6.60;5.47;;;-0.70;99.90;;;;;;5011035;28;20513;-68
2022/03/07 01:34:51;;;;;;;9.60;5.93;;;-1.30;99.90;;;;;;5011125;28;20822;-68
2022/03/07 01:37:18;;;;;;;9.57;6.50;;;-1.10;99.90;;;;;;5011282;28;21044;-68
2022/03/07 01:39:45;;;;;;;9.57;5.87;;;-0.80;99.90;;;;;;5010953;28;20454;-68
2022/03/07 01:42:14;;;;;;;7.33;5.93;;;-1.40;99.90;;;;;;5010563;28;20508;-68
2022/03/07 01:44:40;;;;;;;9.57;6.43;;;-1.10;99.90;;;;;;5011454;28;20446;-68
2022/03/07 01:47:07;;;;;;;8.53;5.80;;;-1.40;99.90;;;;;;5011103;28;20478;-68
2022/03/07 01:49:34;;;;;;;6.90;5.90;;;-1.40;99.90;;;;;;5010761;28;20512;-69
2022/03/07 01:52:01;;;;;;;8.60;6.60;;;-1.40;99.90;;;;;;5011002;28;20466;-68
2022/03/07 01:54:28;;;;;;;9.40;7.27;;;-1.00;99.90;;;;;;5010226;28;20532;-68
2022/03/07 01:56:55;;;;;;;8.73;6.43;;;-1.40;99.90;;;;;;5010581;28;21256;-68
2022/03/07 01:59:25;;;;;;;13.20;7.40;;;-1.00;99.90;;;;;;5010985;28;20504;-70
2022/03/07 02:01:52;;;;;;;12.10;7.47;;;-1.50;99.90;;;;;;5011151;28;20457;-69
2022/03/07 02:04:19;;;;;;;11.40;7.60;;;-1.50;99.90;;;;;;5010284;28;20459;-69
2022/03/07 02:06:47;;;;;;;12.63;7.00;;;-1.50;99.90;;;;;;5010686;28;21055;-69
2022/03/07 02:09:14;;;;;;;10.90;7.67;;;-1.50;99.90;;;;;;5011211;28;20454;-70
2022/03/07 02:11:41;;;;;;;13.20;8.00;;;-1.40;99.90;;;;;;5010543;28;20450;-69
2022/03/07 02:14:13;;;;;;;14.10;9.20;;;-1.30;99.90;;;;;;5009087;28;20454;-69
2022/03/07 02:16:41;;;;;;;12.27;8.23;;;-0.90;99.90;;;;;;5005289;28;20505;-70
2022/03/07 02:19:08;;;;;;;14.83;9.97;;;-1.50;99.90;;;;;;5010441;28;20454;-70
2022/03/07 02:21:35;;;;;;;15.73;11.10;;;-1.30;99.90;;;;;;5010551;28;20486;-70
2022/03/07 02:24:04;;;;;;;20.07;10.90;;;-1.40;99.90;;;;;;5010815;28;20469;-70
2022/03/07 02:26:32;;;;;;;22.20;11.00;;;-1.40;99.90;;;;;;5010548;28;20490;-69
2022/03/07 02:28:58;;;;;;;18.07;11.30;;;-1.30;99.90;;;;;;5010361;28;20462;-69
2022/03/07 02:31:25;;;;;;;18.17;11.20;;;-1.30;99.90;;;;;;5010708;28;20450;-69
2022/03/07 02:33:52;;;;;;;19.33;12.10;;;-1.30;99.90;;;;;;5010776;28;20453;-69
2022/03/07 02:36:19;;;;;;;17.10;11.17;;;-1.30;99.90;;;;;;5010883;28;20477;-70
2022/03/07 02:38:45;;;;;;;20.47;11.27;;;-1.10;99.90;;;;;;5010993;28;20516;-69
2022/03/07 02:41:14;;;;;;;20.27;10.37;;;-1.30;99.90;;;;;;5010518;28;20458;-69
2022/03/07 02:43:41;;;;;;;16.67;11.07;;;-1.00;99.90;;;;;;5010238;28;20461;-70
2022/03/07 02:46:08;;;;;;;19.27;11.70;;;-1.30;99.90;;;;;;5009867;28;20467;-70
2022/03/07 02:48:34;;;;;;;20.50;10.83;;;-1.30;99.90;;;;;;5010562;28;20560;-69
2022/03/07 02:51:01;;;;;;;18.33;11.07;;;-0.90;99.90;;;;;;5010619;28;20450;-69
2022/03/07 02:53:28;;;;;;;20.00;11.03;;;-1.30;99.90;;;;;;5010161;28;20959;-70
2022/03/07 02:55:54;;;;;;;19.63;12.33;;;-1.30;99.90;;;;;;5010658;28;20462;-70
2022/03/07 02:58:23;;;;;;;18.90;10.97;;;-0.90;99.90;;;;;;5010330;28;20453;-70
2022/03/07 03:00:50;;;;;;;21.17;11.03;;;-1.30;99.90;;;;;;5010167;28;20453;-70
2022/03/07 03:03:16;;;;;;;18.63;11.50;;;-1.20;99.90;;;;;;5010018;28;20523;-70
2022/03/07 03:05:43;;;;;;;17.20;10.23;;;-1.20;99.90;;;;;;5013029;28;20477;-69
2022/03/07 03:08:10;;;;;;;19.83;11.50;;;-1.20;99.90;;;;;;5013906;28;20482;-70
2022/03/07 03:10:37;;;;;;;19.20;11.43;;;-1.10;99.90;;;;;;5014078;28;20461;-70
2022/03/07 03:13:04;;;;;;;17.37;11.60;;;-0.80;99.90;;;;;;5013988;28;20492;-70
2022/03/07 03:15:32;;;;;;;18.27;11.03;;;-1.00;99.90;;;;;;5013612;28;21049;-70
2022/03/07 03:17:59;;;;;;;16.97;10.63;;;-1.00;99.90;;;;;;5013017;28;20454;-70
2022/03/07 03:20:25;;;;;;;16.00;10.43;;;-0.60;99.90;;;;;;5013930;28;20461;-69
2022/03/07 03:22:52;;;;;;;18.23;11.07;;;-1.00;99.90;;;;;;5013569;28;20454;-69
2022/03/07 03:25:19;;;;;;;17.47;10.27;;;-1.00;99.90;;;;;;5013918;28;20450;-70
2022/03/07 03:27:45;;;;;;;16.50;10.43;;;-0.90;99.90;;;;;;5013573;28;20998;-70
2022/03/07 03:30:14;;;;;;;17.43;10.37;;;-0.90;99.90;;;;;;5013379;28;20450;-70
2022/03/07 03:32:42;;;;;;;23.90;10.53;;;-0.90;99.90;;;;;;5013637;28;20450;-70
2022/03/07 03:35:09;;;;;;;15.07;10.27;;;-0.90;99.90;;;;;;5013415;28;20516;-69
2022/03/07 03:37:37;;;;;;;15.87;10.00;;;-0.90;99.90;;;;;;5013733;28;20458;-69
2022/03/07 03:40:05;;;;;;;15.20;9.90;;;-0.90;99.90;;;;;;5012992;28;20456;-69
2022/03/07 03:42:32;;;;;;;15.20;9.47;;;-0.80;99.90;;;;;;5013523;28;20454;-69
2022/03/07 03:44:58;;;;;;;18.00;9.97;;;-0.80;99.90;;;;;;5013349;28;20447;-70
2022/03/07 03:47:25;;;;;;;13.53;9.27;;;-0.80;99.90;;;;;;5013113;28;21046;-70
2022/03/07 03:49:53;;;;;;;16.60;9.07;;;-0.80;99.90;;;;;;5013191;28;20447;-69
2022/03/07 03:52:20;;;;;;;14.67;9.37;;;-0.80;99.90;;;;;;5013209;28;20462;-70
2022/03/07 03:54:47;;;;;;;17.93;10.23;;;-0.80;99.90;;;;;;5012727;28;21033;-70
2022/03/07 03:57:13;;;;;;;14.70;9.57;;;-0.80;99.90;;;;;;5012772;28;20466;-70
2022/03/07 03:59:40;;;;;;;14.00;9.60;;;-0.80;99.90;;;;;;5013435;28;20450;-70
2022/03/07 04:02:07;;;;;;;12.57;8.37;;;-0.80;99.90;;;;;;5013400;28;20488;-70
2022/03/07 04:04:34;;;;;;;15.67;10.00;;;-0.80;99.90;;;;;;5012698;28;21029;-70
2022/03/07 04:07:02;;;;;;;19.97;9.83;;;-0.80;99.90;;;;;;5011915;28;21236;-70
2022/03/07 04:09:29;;;;;;;20.20;10.00;;;-0.80;99.90;;;;;;5011742;28;20462;-70
2022/03/07 04:11:56;;;;;;;15.27;9.33;;;-0.80;99.90;;;;;;5012353;28;20461;-69
2022/03/07 04:14:23;;;;;;;13.97;9.30;;;-0.70;99.90;;;;;;5013050;28;20461;-69
2022/03/07 04:16:49;;;;;;;15.30;9.90;;;-0.80;99.90;;;;;;5012137;28;20593;-69
2022/03/07 04:19:17;;;;;;;16.43;9.77;;;-0.80;99.90;;;;;;5012538;28;20950;-69
2022/03/07 04:21:44;;;;;;;13.93;10.17;;;-0.70;99.90;;;;;;5012606;28;20455;-70
2022/03/07 04:24:13;;;;;;;15.63;10.20;;;-0.70;99.90;;;;;;5009869;28;20466;-70
2022/03/07 04:26:41;;;;;;;16.93;10.33;;;-0.70;99.90;;;;;;5013089;28;20486;-70
2022/03/07 04:29:08;;;;;;;14.07;9.90;;;-0.70;99.90;;;;;;5012357;28;20482;-70
2022/03/07 04:31:35;;;;;;;16.70;10.00;;;-0.70;99.90;;;;;;5012645;28;20493;-70
2022/03/07 04:34:02;;;;;;;18.70;10.43;;;-0.70;99.90;;;;;;5012457;28;20541;-70
2022/03/07 04:36:29;;;;;;;14.73;10.07;;;-0.70;99.90;;;;;;5012349;28;20470;-70
2022/03/07 04:38:56;;;;;;;15.03;10.10;;;-0.70;99.90;;;;;;5011955;28;20534;-70
2022/03/07 04:41:24;;;;;;;15.47;10.27;;;-0.70;99.90;;;;;;5012724;28;20450;-70
2022/03/07 04:43:51;;;;;;;16.40;9.60;;;-0.60;99.90;;;;;;5011901;28;20943;-70
2022/03/07 04:46:17;;;;;;;16.53;10.63;;;-0.60;99.90;;;;;;5012112;28;20478;-70
2022/03/07 04:48:44;;;;;;;14.50;9.80;;;-0.60;99.90;;;;;;5011866;28;20482;-70
2022/03/07 04:51:11;;;;;;;14.40;10.37;;;-0.50;99.90;;;;;;5012284;28;20454;-70
2022/03/07 04:53:37;;;;;;;13.93;9.30;;;-0.50;99.90;;;;;;5011743;28;20446;-69
2022/03/07 04:56:05;;;;;;;16.20;9.57;;;-0.50;99.90;;;;;;5012468;28;20477;-69
2022/03/07 04:58:33;;;;;;;14.93;9.60;;;-0.50;99.90;;;;;;5012477;28;20449;-69
2022/03/07 05:01:00;;;;;;;15.97;10.23;;;-0.50;99.90;;;;;;5011997;28;20462;-69
2022/03/07 05:03:26;;;;;;;14.40;9.20;;;-0.50;99.90;;;;;;5011966;28;20536;-69
2022/03/07 05:05:53;;;;;;;17.57;10.50;;;-0.40;99.90;;;;;;5011170;28;20998;-70
2022/03/07 05:08:20;;;;;;;15.67;10.43;;;-0.40;99.90;;;;;;5011598;28;20536;-69
2022/03/07 05:10:47;;;;;;;15.03;9.57;;;-0.40;99.90;;;;;;5011928;28;20485;-69
2022/03/07 05:13:14;;;;;;;14.90;9.40;;;-0.40;99.90;;;;;;5011467;28;20450;-69
2022/03/07 05:15:42;;;;;;;14.90;9.37;;;-0.40;99.90;;;;;;5011770;28;20474;-69
2022/03/07 05:18:09;;;;;;;15.10;9.13;;;-0.40;99.90;;;;;;5011906;28;20481;-69
2022/03/07 05:20:36;;;;;;;14.60;9.50;;;-0.40;99.90;;;;;;5011161;28;20447;-70
2022/03/07 05:23:03;;;;;;;14.53;9.60;;;-0.40;99.90;;;;;;5011397;28;20454;-70
2022/03/07 05:25:29;;;;;;;15.63;10.50;;;-0.40;99.90;;;;;;5011153;28;20525;-70
2022/03/07 05:27:56;;;;;;;15.47;9.17;;;-0.40;99.90;;;;;;5006624;28;20556;-70
2022/03/07 05:30:24;;;;;;;16.50;10.80;;;-0.40;99.90;;;;;;5011900;28;20453;-70
2022/03/07 05:32:53;;;;;;;16.70;9.30;;;-0.40;99.90;;;;;;5011367;28;20465;-70
2022/03/07 05:35:22;;;;;;;16.43;9.60;;;-0.40;99.90;;;;;;5011019;28;20457;-69
2022/03/07 05:37:49;;;;;;;16.40;9.83;;;-0.40;99.90;;;;;;5011497;28;20457;-69
2022/03/07 05:40:17;;;;;;;15.33;10.20;;;-0.40;99.90;;;;;;5011286;28;20508;-69
2022/03/07 05:42:44;;;;;;;14.70;9.10;;;-0.40;99.90;;;;;;5010895;28;20454;-70
2022/03/07 05:45:15;;;;;;;16.17;9.83;;;-0.40;99.90;;;;;;5011081;28;20454;-70
2022/03/07 05:47:42;;;;;;;17.30;8.97;;;-0.40;99.90;;;;;;5010704;28;20482;-69
2022/03/07 05:50:11;;;;;;;14.33;8.73;;;-0.40;99.90;;;;;;5011373;28;20454;-69
2022/03/07 05:52:38;;;;;;;16.37;9.33;;;-0.40;99.90;;;;;;5011320;28;20454;-69
2022/03/07 05:55:06;;;;;;;13.50;9.00;;;-0.40;99.90;;;;;;5011244;28;20462;-69
2022/03/07 05:57:33;;;;;;;16.30;9.27;;;-0.40;99.90;;;;;;5010436;28;20978;-69
2022/03/07 06:00:00;;;;;;;14.13;8.87;;;-0.30;99.90;;;;;;5010504;28;20462;-69
2022/03/07 06:02:27;;;;;;;12.40;8.97;;;-0.30;99.90;;;;;;5010143;28;20454;-70
2022/03/07 06:04:53;;;;;;;12.37;8.13;;;-0.30;99.90;;;;;;5010894;28;20532;-70
2022/03/07 06:07:22;;;;;;;11.70;8.47;;;-0.30;99.90;;;;;;5010726;28;20470;-70
2022/03/07 06:09:48;;;;;;;14.50;8.70;;;-0.30;99.90;;;;;;5010856;28;20458;-70
2022/03/07 06:12:16;;;;;;;12.00;8.10;;;-0.30;99.90;;;;;;5010824;28;20939;-69
2022/03/07 06:14:43;;;;;;;8.70;7.63;;;-0.30;99.90;;;;;;5009973;28;20442;-69
2022/03/07 06:17:09;;;;;;;14.37;7.10;;;-0.20;99.90;;;;;;5009410;28;20466;-70
2022/03/07 06:19:36;;;;;;;11.20;7.33;;;-0.20;99.90;;;;;;5010399;28;21005;-70
2022/03/07 06:22:03;;;;;;;11.70;6.23;;;-0.20;99.90;;;;;;5010701;28;20507;-70
2022/03/07 06:24:31;;;;;;;10.67;6.67;;;-0.20;99.90;;;;;;5010155;28;20450;-69
2022/03/07 06:26:58;;;;;;;10.70;6.73;;;-0.20;99.90;;;;;;5010991;28;20466;-70
2022/03/07 06:29:25;;;;;;;7.33;6.27;;;-0.20;99.90;;;;;;5010769;28;20486;-69
2022/03/07 06:31:51;;;;;;;6.87;5.80;;;-0.20;99.90;;;;;;5010321;28;20453;-70
2022/03/07 06:34:18;;;;;;;9.63;6.27;;;-0.20;99.90;;;;;;5010566;28;20520;-70
2022/03/07 06:36:45;;;;;;;10.80;5.90;;;-0.20;99.90;;;;;;5010508;28;20474;-70
2022/03/07 06:39:12;;;;;;;11.03;5.83;;;-0.20;99.90;;;;;;5010442;28;20458;-70
2022/03/07 06:41:40;;;;;;;8.53;6.33;;;-0.10;99.90;;;;;;5014561;28;20569;-70
2022/03/07 06:44:06;;;;;;;7.13;5.53;;;-0.10;99.90;;;;;;5014517;28;20454;-68
2022/03/07 06:46:33;;;;;;;7.37;6.00;;;0.10;99.90;;;;;;5014003;28;20477;-69
2022/03/07 06:49:00;;;;;;;7.30;6.03;;;0.50;99.90;;;;;;5014692;28;20528;-68
2022/03/07 06:51:26;;;;;;;7.60;6.00;;;0.40;99.90;;;;;;5014377;28;20500;-69
2022/03/07 06:53:53;;;;;;;13.23;5.90;;;0.40;99.90;;;;;;5013971;28;20450;-69
2022/03/07 06:56:20;;;;;;;14.03;6.73;;;0.10;99.90;;;;;;5014499;28;20469;-69
2022/03/07 06:58:48;;;;;;;9.13;6.37;;;0.10;99.90;;;;;;5011785;28;20453;-71
2022/03/07 07:01:15;;;;;;;7.27;6.07;;;0.20;99.90;;;;;;5013072;28;20465;-69
2022/03/07 07:03:41;;;;;;;8.90;6.33;;;0.20;99.90;;;;;;5006327;28;20477;-69
2022/03/07 07:06:08;;;;;;;9.00;5.73;;;0.20;99.90;;;;;;5014264;28;20500;-69
2022/03/07 07:08:35;;;;;;;6.77;6.07;;;0.30;99.90;;;;;;5013978;28;20482;-69
2022/03/07 07:11:01;;;;;;;8.00;5.67;;;0.30;99.90;;;;;;5014038;28;20521;-69
2022/03/07 07:13:28;;;;;;;6.43;5.73;;;0.80;99.90;;;;;;5013577;28;21016;-69
2022/03/07 07:15:56;;;;;;;11.07;6.20;;;0.90;99.90;;;;;;5013631;28;20842;-69
2022/03/07 07:18:23;;;;;;;6.70;6.00;;;1.00;99.90;;;;;;5013331;28;20454;-69
2022/03/07 07:20:51;;;;;;;8.20;5.57;;;0.50;99.90;;;;;;5010312;28;20457;-69
2022/03/07 07:23:18;;;;;;;8.17;6.67;;;0.50;99.90;;;;;;5008770;28;20565;-69
2022/03/07 07:25:45;;;;;;;7.03;6.03;;;0.70;99.90;;;;;;5007428;28;20555;-70
2022/03/07 07:28:12;;;;;;;6.83;6.00;;;0.60;99.90;;;;;;5013872;28;21028;-70
2022/03/07 07:30:39;;;;;;;6.33;5.30;;;1.30;99.90;;;;;;5013244;28;20822;-70
2022/03/07 07:33:07;;;;;;;9.07;5.60;;;1.50;99.90;;;;;;5013589;28;20470;-71
2022/03/07 07:35:36;;;;;;;5.43;4.90;;;1.60;99.90;;;;;;5012545;28;20481;-71
2022/03/07 07:38:03;;;;;;;7.47;5.77;;;1.50;99.90;;;;;;5013780;28;20450;-72
2022/03/07 07:40:31;;;;;;;7.37;5.00;;;1.30;99.90;;;;;;5013473;28;20874;-71
2022/03/07 07:42:58;;;;;;;7.13;6.40;;;1.10;99.90;;;;;;5013295;28;20828;-70
2022/03/07 07:45:25;;;;;;;6.57;5.33;;;1.00;99.90;;;;;;5011099;28;20865;-72
2022/03/07 07:47:52;;;;;;;8.10;6.00;;;0.90;99.90;;;;;;5010457;28;20466;-72
2022/03/07 07:50:20;;;;;;;7.23;5.67;;;0.80;99.90;;;;;;5010764;28;20482;-71
2022/03/07 07:52:47;;;;;;;7.23;5.20;;;1.00;99.90;;;;;;5012257;28;20482;-71
2022/03/07 07:55:14;;;;;;;7.33;5.97;;;0.70;99.90;;;;;;5012965;28;20457;-72
2022/03/07 07:57:41;;;;;;;7.43;5.00;;;0.80;99.90;;;;;;5012349;28;20501;-72
2022/03/07 08:00:10;;;;;;;9.83;5.63;;;0.90;99.90;;;;;;5012758;28;20485;-72
2022/03/07 08:02:36;;;;;;;5.50;5.00;;;0.90;99.90;;;;;;5011731;28;20462;-70
2022/03/07 08:05:04;;;;;;;5.53;5.03;;;0.90;99.90;;;;;;5012522;28;20550;-69
2022/03/07 08:07:34;;;;;;;8.07;5.83;;;1.00;99.90;;;;;;5012532;28;20487;-70
2022/03/07 08:10:01;;;;;;;7.77;5.60;;;1.00;99.90;;;;;;5013016;28;20492;-70
2022/03/07 08:12:28;;;;;;;10.70;5.30;;;1.10;99.90;;;;;;5011476;28;20518;-70
2022/03/07 08:14:55;;;;;;;9.50;6.30;;;1.20;99.90;;;;;;5011638;28;20457;-69
2022/03/07 08:17:22;;;;;;;5.80;4.97;;;1.30;99.90;;;;;;5011879;28;21001;-70
2022/03/07 08:19:49;;;;;;;7.40;5.70;;;1.30;99.90;;;;;;5011415;28;20459;-70
2022/03/07 08:22:15;;;;;;;6.60;5.07;;;1.40;99.90;;;;;;5011917;28;20446;-72
2022/03/07 08:24:43;;;;;;;7.67;5.67;;;1.40;99.90;;;;;;5011269;28;20458;-71
2022/03/07 08:27:10;;;;;;;10.27;6.20;;;1.40;99.90;;;;;;5011534;28;20896;-70
2022/03/07 08:29:37;;;;;;;7.10;6.10;;;1.50;99.90;;;;;;5010503;28;20555;-71
2022/03/07 08:32:04;;;;;;;7.60;5.70;;;1.50;99.90;;;;;;5011099;28;20462;-72
2022/03/07 08:34:32;;;;;;;9.67;6.70;;;1.50;99.90;;;;;;5010800;28;20491;-71
2022/03/07 08:36:58;;;;;;;8.57;6.50;;;1.60;99.90;;;;;;5011151;28;20486;-69
2022/03/07 08:39:25;;;;;;;16.80;10.67;;;2.10;99.90;;;;;;5010413;28;20460;-69
2022/03/07 08:41:53;;;;;;;14.90;10.53;;;1.70;99.90;;;;;;5011977;28;20450;-69
2022/03/07 08:44:20;;;;;;;8.37;6.90;;;1.60;99.90;;;;;;5010280;28;20461;-70
2022/03/07 08:46:47;;;;;;;9.30;6.87;;;1.50;99.90;;;;;;5011889;28;20516;-70
2022/03/07 08:49:14;;;;;;;9.50;6.80;;;1.50;99.90;;;;;;5011566;28;20487;-70
2022/03/07 08:51:43;;;;;;;7.80;6.17;;;1.70;99.90;;;;;;5010952;28;20469;-70
2022/03/07 08:54:10;;;;;;;10.43;7.80;;;1.50;99.90;;;;;;5010844;28;20465;-70
2022/03/07 08:56:37;;;;;;;8.80;6.50;;;1.50;99.90;;;;;;5011579;28;20466;-70
2022/03/07 08:59:05;;;;;;;9.00;6.73;;;1.60;99.90;;;;;;5010761;28;20451;-70
2022/03/07 09:01:32;;;;;;;8.53;6.33;;;1.70;99.90;;;;;;5010905;28;20513;-69
2022/03/07 09:03:58;;;;;;;7.83;5.87;;;1.70;99.90;;;;;;5010238;28;20454;-69
2022/03/07 09:06:25;;;;;;;8.00;6.80;;;1.70;99.90;;;;;;5006420;28;21013;-69
2022/03/07 09:08:52;;;;;;;13.33;6.57;;;1.90;99.90;;;;;;5010497;28;20510;-69
2022/03/07 09:11:19;;;;;;;9.63;6.60;;;1.90;99.90;;;;;;5011317;28;20501;-69
2022/03/07 09:13:46;;;;;;;8.33;6.77;;;2.00;99.90;;;;;;5010555;28;20450;-70
2022/03/07 09:16:15;;;;;;;8.47;5.80;;;1.90;99.90;;;;;;5012474;28;20474;-69
2022/03/07 09:18:42;;;;;;;7.13;6.03;;;2.00;99.90;;;;;;5010876;28;20882;-68
2022/03/07 09:21:09;;;;;;;8.00;6.67;;;2.00;99.90;;;;;;5010500;28;20455;-69
2022/03/07 09:23:39;;;;;;;9.63;6.67;;;2.10;99.90;;;;;;5010115;28;20457;-69
2022/03/07 09:26:06;;;;;;;11.87;7.20;;;2.10;99.90;;;;;;5009230;28;20482;-70
2022/03/07 09:28:33;;;;;;;9.60;6.33;;;2.20;99.90;;;;;;5009444;28;21108;-68
2022/03/07 09:31:01;;;;;;;8.37;6.20;;;2.20;99.90;;;;;;5011254;28;20820;-69
2022/03/07 09:33:29;;;;;;;10.83;7.73;;;2.40;99.90;;;;;;5010294;28;20477;-68
2022/03/07 09:35:56;;;;;;;9.63;7.07;;;2.80;99.90;;;;;;5010848;28;20474;-69
2022/03/07 09:38:23;;;;;;;10.50;7.47;;;3.30;99.90;;;;;;5010765;28;20481;-69
2022/03/07 09:40:50;;;;;;;12.43;7.50;;;3.40;99.90;;;;;;5010379;28;20501;-69
2022/03/07 09:43:16;;;;;;;11.23;7.40;;;3.60;99.90;;;;;;5010354;28;20454;-69
2022/03/07 09:45:43;;;;;;;10.90;7.40;;;4.00;99.90;;;;;;5010765;28;20994;-69
2022/03/07 09:48:12;;;;;;;9.67;6.60;;;4.30;99.90;;;;;;5009152;28;20482;-69
2022/03/07 09:50:41;;;;;;;14.00;8.50;;;4.40;99.90;;;;;;5009071;28;20521;-69
2022/03/07 09:53:08;;;;;;;9.10;7.40;;;4.10;99.90;;;;;;5010924;28;20458;-69
2022/03/07 09:55:36;;;;;;;10.27;7.80;;;3.70;99.90;;;;;;5010455;28;20474;-69
2022/03/07 09:58:03;;;;;;;8.90;6.73;;;3.50;99.90;;;;;;5010992;28;20954;-69
2022/03/07 10:00:30;;;;;;;13.10;8.10;;;3.80;99.90;;;;;;5010480;28;20453;-69
2022/03/07 10:02:59;;;;;;;11.40;7.70;;;4.60;99.90;;;;;;5009194;28;20458;-69
2022/03/07 10:05:32;;;;;;;11.83;8.47;;;4.90;99.90;;;;;;5005524;28;20473;-69
2022/03/07 10:08:00;;;;;;;12.93;7.63;;;5.10;99.90;;;;;;5010471;28;20458;-69
2022/03/07 10:10:32;;;;;;;9.03;7.47;;;5.10;99.90;;;;;;5009800;28;20482;-69
2022/03/07 10:13:06;;;;;;;11.73;8.07;;;5.10;99.90;;;;;;5010869;28;20458;-69
2022/03/07 10:15:33;;;;;;;14.70;7.80;;;5.20;99.90;;;;;;5010012;28;20473;-71
2022/03/07 10:17:59;;;;;;;11.67;8.60;;;5.20;99.90;;;;;;5010648;28;20450;-71
2022/03/07 10:20:27;;;;;;;13.77;9.13;;;5.20;99.90;;;;;;5009747;28;20505;-71
2022/03/07 10:22:55;;;;;;;12.60;8.80;;;5.10;99.90;;;;;;5009982;28;20450;-71
2022/03/07 10:25:25;;;;;;;11.43;8.43;;;5.10;99.90;;;;;;5010126;28;20533;-71
2022/03/07 10:27:52;;;;;;;13.07;9.00;;;5.00;99.90;;;;;;5008935;28;20542;-71
2022/03/07 10:30:23;;;;;;;12.67;8.87;;;5.00;99.90;;;;;;5010183;28;20486;-74
2022/03/07 10:32:55;;;;;;;12.40;9.10;;;4.90;99.90;;;;;;5010290;28;20940;-71
2022/03/07 10:35:25;;;;;;;13.43;8.83;;;4.60;99.90;;;;;;5005852;28;20871;-72
2022/03/07 10:37:57;;;;;;;22.03;8.90;;;4.40;99.90;;;;;;5010206;28;20816;-72
2022/03/07 10:40:26;;;;;;;13.60;8.83;;;4.40;99.90;;;;;;5009540;28;20537;-72
2022/03/07 10:42:54;;;;;;;18.50;9.40;;;4.10;99.90;;;;;;5010048;28;20844;-71
2022/03/07 10:45:21;;;;;;;14.60;9.10;;;4.20;99.90;;;;;;5006023;28;21330;-74
2022/03/07 10:47:53;;;;;;;12.73;9.67;;;4.50;99.90;;;;;;5009001;28;20458;-73
2022/03/07 10:50:22;;;;;;;15.67;10.60;;;5.00;99.90;;;;;;5008589;28;21013;-70
2022/03/07 10:52:50;;;;;;;13.23;9.60;;;5.20;99.90;;;;;;5010258;28;20819;-68
2022/03/07 10:55:25;;;;;;;17.20;9.27;;;5.30;99.90;;;;;;5008717;28;20966;-69
2022/03/07 10:57:52;;;;;;;13.27;9.00;;;5.10;99.90;;;;;;5010549;28;20458;-69
2022/03/07 11:00:21;;;;;;;28.40;11.07;;;5.30;99.90;;;;;;5009747;28;20942;-69
2022/03/07 11:02:50;;;;;;;14.30;9.53;;;5.70;99.90;;;;;;5010979;28;20980;-71
2022/03/07 11:05:18;;;;;;;14.10;10.03;;;6.00;99.90;;;;;;5009727;28;20465;-70
2022/03/07 11:07:46;;;;;;;11.70;9.03;;;6.50;99.90;;;;;;5009436;28;20970;-71
2022/03/07 11:10:15;;;;;;;13.70;9.30;;;6.60;99.90;;;;;;5007623;28;20501;-69
2022/03/07 11:12:44;;;;;;;12.30;9.10;;;6.20;99.90;;;;;;5009266;28;20463;-69
2022/03/07 11:15:18;;;;;;;16.43;10.27;;;5.90;99.90;;;;;;5009442;28;20450;-68
2022/03/07 11:17:47;;;;;;;13.60;9.50;;;5.80;99.90;;;;;;5009665;28;20827;-69
2022/03/07 11:20:15;;;;;;;15.03;10.47;;;5.80;99.90;;;;;;5010497;28;20450;-69
2022/03/07 11:22:43;;;;;;;15.13;9.93;;;5.80;99.90;;;;;;5010164;28;20458;-69
2022/03/07 11:25:15;;;;;;;11.73;8.30;;;6.10;99.90;;;;;;5009568;28;20458;-69
2022/03/07 11:27:44;;;;;;;11.67;9.40;;;6.30;99.90;;;;;;5013138;28;20450;-69
2022/03/07 11:30:17;;;;;;;15.07;11.50;;;6.40;99.90;;;;;;5014331;28;20490;-69
2022/03/07 11:32:44;;;;;;;14.33;10.13;;;6.30;99.90;;;;;;5013779;28;20947;-69
2022/03/07 11:35:12;;;;;;;23.17;10.20;;;6.10;99.60;;;;;;5012460;28;20490;-69
2022/03/07 11:37:39;;;;;;;13.57;10.30;;;6.30;99.90;;;;;;5012428;28;20842;-69
2022/03/07 11:40:18;;;;;;;11.03;9.10;;;6.40;99.90;;;;;;5012989;28;20457;-69
2022/03/07 11:42:46;;;;;;;12.40;9.87;;;6.10;99.70;;;;;;5013222;28;20460;-69
2022/03/07 11:45:18;;;;;;;14.32;9.13;;;6.20;99.90;;;;;;5012080;28;20517;-69
2022/03/07 11:47:47;;;;;;;14.53;9.87;;;6.70;99.90;;;;;;5012297;28;20199;-69
2022/03/07 11:50:18;;;;;;;11.73;9.33;;;7.20;99.60;;;;;;5010827;28;20560;-68
2022/03/07 11:52:45;;;;;;;12.87;10.67;;;7.40;98.20;;;;;;5012044;28;20549;-69
2022/03/07 11:55:16;;;;;;;13.63;9.33;;;7.50;98.60;;;;;;5012329;28;20476;-69
2022/03/07 11:57:45;;;;;;;14.73;9.90;;;7.70;98.10;;;;;;5012864;28;20462;-69
2022/03/07 12:00:22;;;;;;;15.37;10.10;;;8.10;98.00;;;;;;5012367;28;20458;-68
2022/03/07 12:02:51;;;;;;;13.57;10.13;;;8.10;98.00;;;;;;5009521;28;20453;-68
2022/03/07 12:05:26;;;;;;;9.93;8.60;;;8.10;96.60;;;;;;5011730;28;20470;-71
2022/03/07 12:07:54;;;;;;;12.50;9.67;;;8.00;97.60;;;;;;5012340;28;20453;-68
2022/03/07 12:10:21;;;;;;;14.57;9.80;;;8.00;96.80;;;;;;5003190;28;20486;-69
2022/03/07 12:12:48;;;;;;;13.90;10.13;;;8.10;96.90;;;;;;5011411;28;20915;-68
2022/03/07 12:15:15;;;;;;;12.97;10.87;;;7.90;96.90;;;;;;5008733;28;20203;-68
2022/03/07 12:17:52;;;;;;;12.43;9.50;;;7.80;96.20;;;;;;5009898;28;20469;-69
2022/03/07 12:20:19;;;;;;;11.33;9.03;;;8.00;95.90;;;;;;5010977;28;20468;-68
2022/03/07 12:22:46;;;;;;;12.33;9.13;;;7.70;95.80;;;;;;5009453;28;20462;-71
2022/03/07 12:25:13;;;;;;;14.10;9.10;;;7.90;96.50;;;;;;5010334;28;20894;-69
2022/03/07 12:27:41;;;;;;;12.23;9.00;;;8.00;96.00;;;;;;5008331;28;20486;-68
2022/03/07 12:30:10;;;;;;;11.30;8.63;;;8.20;97.20;;;;;;5011257;28;20490;-73
2022/03/07 12:32:38;;;;;;;12.87;9.80;;;8.50;99.90;;;;;;5012485;28;20481;-72
2022/03/07 12:35:08;;;;;;;10.93;9.20;;;8.60;95.00;;;;;;5012248;28;20509;-72
2022/03/07 12:37:37;;;;;;;10.93;9.20;;;8.40;95.60;;;;;;5011123;28;20461;-73
2022/03/07 12:40:06;;;;;;;11.07;8.53;;;8.40;95.20;;;;;;5011854;28;20560;-72
2022/03/07 12:42:38;;;;;;;11.30;8.80;;;8.50;96.60;;;;;;5012237;28;20454;-72
2022/03/07 12:45:06;;;;;;;11.90;9.43;;;8.50;95.40;;;;;;5011496;28;20809;-73